Time;durP1;ratioP1;P1;durP2;ratioP2;P2;SDS_P1;SDS_P2;PMS_P1;PMS_P2;Temp;Humidity;BMP_temperature;BMP_pressure;BME280_temperature;BME280_humidity;BME280_pressure;Samples;Min_cycle;Max_cycle;Signal;HPM_P1;HPM_P2
2021/10/13 00:00:05;;;;;;;4.20;1.92;;;7.30;99.90;;;;;;5106483;28;20047;-60
2021/10/13 00:02:31;;;;;;;7.70;2.28;;;7.30;99.90;;;;;;5102662;28;20044;-59
2021/10/13 00:04:57;;;;;;;8.77;2.42;;;7.40;99.90;;;;;;5103180;28;20154;-61
2021/10/13 00:07:23;;;;;;;7.88;2.33;;;7.40;99.90;;;;;;5106963;28;20150;-58
2021/10/13 00:09:49;;;;;;;9.48;1.95;;;7.50;99.90;;;;;;5108207;28;20089;-62
2021/10/13 00:12:16;;;;;;;7.82;1.83;;;7.50;99.90;;;;;;5109187;28;20137;-59
2021/10/13 00:14:45;;;;;;;7.65;2.05;;;7.60;99.90;;;;;;5109356;27;20047;-60
2021/10/13 00:17:13;;;;;;;8.98;2.20;;;7.70;99.90;;;;;;5111321;28;20138;-60
2021/10/13 00:19:39;;;;;;;9.35;2.28;;;7.80;99.90;;;;;;5109731;28;20746;-61
2021/10/13 00:22:05;;;;;;;6.13;2.05;;;7.80;99.90;;;;;;5109916;28;20051;-59
2021/10/13 00:24:31;;;;;;;9.45;2.25;;;7.90;99.90;;;;;;5107478;28;20055;-61
2021/10/13 00:27:00;;;;;;;9.10;2.38;;;8.00;99.90;;;;;;5090169;28;20457;-58
2021/10/13 00:29:27;;;;;;;8.82;2.38;;;8.00;99.90;;;;;;5109281;28;20213;-58
2021/10/13 00:31:53;;;;;;;9.30;2.25;;;8.10;99.90;;;;;;5107971;28;20065;-57
2021/10/13 00:34:22;;;;;;;8.55;2.10;;;8.10;99.90;;;;;;5107931;28;20062;-60
2021/10/13 00:36:48;;;;;;;7.15;2.08;;;8.20;99.90;;;;;;5108212;27;20047;-59
2021/10/13 00:39:16;;;;;;;7.18;2.08;;;8.30;99.90;;;;;;5090180;28;20071;-57
2021/10/13 00:41:42;;;;;;;10.13;2.40;;;8.30;99.90;;;;;;5107107;28;20051;-60
2021/10/13 00:44:08;;;;;;;9.45;2.15;;;8.30;99.90;;;;;;5109154;28;20097;-60
2021/10/13 00:46:34;;;;;;;8.43;2.45;;;8.40;99.90;;;;;;5108625;28;20100;-60
2021/10/13 00:49:05;;;;;;;9.25;2.08;;;8.40;99.90;;;;;;5109037;28;20055;-60
2021/10/13 00:51:31;;;;;;;8.80;2.13;;;8.40;99.90;;;;;;5106250;28;20051;-58
2021/10/13 00:53:57;;;;;;;9.57;2.25;;;8.40;99.90;;;;;;5110201;28;20126;-61
2021/10/13 00:56:27;;;;;;;7.82;2.10;;;8.40;99.90;;;;;;5106372;28;20085;-57
2021/10/13 00:58:53;;;;;;;6.93;1.90;;;8.30;99.90;;;;;;5105342;28;20492;-56
2021/10/13 01:01:29;;;;;;;6.72;2.50;;;8.20;99.90;;;;;;5107081;28;20051;-60
2021/10/13 01:04:20;;;;;;;4.70;1.98;;;8.20;99.90;;;;;;5089078;28;20056;-58
2021/10/13 01:06:56;;;;;;;6.80;1.77;;;8.00;99.90;;;;;;5101703;28;20499;-60
2021/10/13 01:09:29;;;;;;;5.40;1.88;;;7.90;99.90;;;;;;5108847;28;20095;-57
2021/10/13 01:12:44;;;;;;;6.72;2.17;;;7.80;99.90;;;;;;5105379;28;20180;-58
2021/10/13 01:15:41;;;;;;;4.85;1.60;;;7.70;99.90;;;;;;5088077;28;20052;-60
2021/10/13 01:18:38;;;;;;;8.00;1.80;;;7.60;99.90;;;;;;5108483;28;20115;-60
2021/10/13 01:21:16;;;;;;;5.93;2.13;;;7.60;99.90;;;;;;5104710;28;20055;-57
2021/10/13 01:24:20;;;;;;;7.55;2.13;;;7.50;99.90;;;;;;5103364;28;20063;-60
2021/10/13 01:26:58;;;;;;;5.70;1.70;;;7.40;99.90;;;;;;5105013;28;20063;-57
2021/10/13 01:29:25;;;;;;;7.28;1.58;;;7.30;99.90;;;;;;5099352;28;20055;-59
2021/10/13 01:31:58;;;;;;;6.75;2.10;;;7.20;99.90;;;;;;5104471;28;20056;-58
2021/10/13 01:34:27;;;;;;;6.30;1.88;;;7.20;99.90;;;;;;5105322;28;20058;-59
2021/10/13 01:37:04;;;;;;;8.00;2.53;;;7.20;99.90;;;;;;5107470;28;20112;-56
2021/10/13 01:39:32;;;;;;;8.63;2.10;;;7.10;99.90;;;;;;5107041;28;20059;-61
2021/10/13 01:42:10;;;;;;;8.88;2.20;;;7.10;99.90;;;;;;5088995;28;20047;-59
2021/10/13 01:44:37;;;;;;;8.07;2.03;;;7.10;99.90;;;;;;5105741;28;20119;-60
2021/10/13 01:47:05;;;;;;;6.75;2.05;;;7.10;99.90;;;;;;5108687;28;20080;-60
2021/10/13 01:49:33;;;;;;;4.78;1.90;;;7.00;99.90;;;;;;5105887;28;20055;-59
2021/10/13 01:52:01;;;;;;;5.97;2.08;;;7.00;99.90;;;;;;5107049;28;20134;-60
2021/10/13 01:54:28;;;;;;;7.45;2.28;;;7.00;99.90;;;;;;5104509;28;20059;-57
2021/10/13 01:56:56;;;;;;;9.50;2.70;;;7.00;99.90;;;;;;5105366;28;20055;-61
2021/10/13 01:59:25;;;;;;;8.60;1.95;;;7.00;99.90;;;;;;5104648;28;20063;-60
2021/10/13 02:01:53;;;;;;;6.30;2.03;;;7.00;99.90;;;;;;5109081;28;20666;-59
2021/10/13 02:04:20;;;;;;;6.28;1.65;;;7.00;99.90;;;;;;5089978;28;20496;-59
2021/10/13 02:06:49;;;;;;;9.98;2.13;;;6.90;99.90;;;;;;5085084;28;20047;-59
2021/10/13 02:09:17;;;;;;;9.18;2.47;;;6.90;99.90;;;;;;5106118;28;20063;-59
2021/10/13 02:11:45;;;;;;;12.38;2.22;;;6.90;99.90;;;;;;5103457;28;20047;-56
2021/10/13 02:14:14;;;;;;;6.20;2.08;;;6.90;99.90;;;;;;5105241;28;20051;-59
2021/10/13 02:16:47;;;;;;;8.48;2.00;;;7.00;99.90;;;;;;5103871;28;20067;-58
2021/10/13 02:19:16;;;;;;;5.40;2.40;;;7.00;99.90;;;;;;5105418;28;20066;-56
2021/10/13 02:21:46;;;;;;;9.10;2.35;;;7.10;99.90;;;;;;5088914;28;20044;-61
2021/10/13 02:24:17;;;;;;;8.70;1.92;;;7.10;99.90;;;;;;5106747;28;20047;-57
2021/10/13 02:26:46;;;;;;;8.70;2.30;;;7.30;99.90;;;;;;5105185;28;20043;-57
2021/10/13 02:29:16;;;;;;;8.98;2.28;;;7.40;99.90;;;;;;5103829;28;20047;-60
2021/10/13 02:31:44;;;;;;;8.30;2.45;;;7.50;99.90;;;;;;5105852;28;20055;-59
2021/10/13 02:34:11;;;;;;;10.45;2.30;;;7.60;99.90;;;;;;5104702;28;20100;-63
2021/10/13 02:36:38;;;;;;;12.75;2.33;;;7.70;99.90;;;;;;5105096;28;20051;-58
2021/10/13 02:39:06;;;;;;;6.95;2.47;;;7.70;99.90;;;;;;5105962;28;20111;-59
2021/10/13 02:41:33;;;;;;;7.20;2.40;;;7.80;99.90;;;;;;5101971;28;20462;-61
2021/10/13 02:44:06;;;;;;;12.27;2.10;;;7.80;99.90;;;;;;5105523;28;20427;-59
2021/10/13 02:46:53;;;;;;;8.32;2.00;;;7.90;99.90;;;;;;5103485;28;20098;-59
2021/10/13 02:49:33;;;;;;;10.75;2.50;;;7.90;99.90;;;;;;5105369;28;20055;-60
2021/10/13 02:52:23;;;;;;;7.30;2.13;;;7.90;99.90;;;;;;5104209;28;20055;-58
2021/10/13 02:54:56;;;;;;;8.50;2.33;;;7.90;99.90;;;;;;5087361;28;20142;-59
2021/10/13 02:57:26;;;;;;;9.68;2.22;;;7.90;99.90;;;;;;5105110;28;20047;-58
2021/10/13 02:59:52;;;;;;;15.13;2.67;;;8.00;99.90;;;;;;5105614;28;20059;-59
2021/10/13 03:02:27;;;;;;;7.18;2.10;;;8.00;99.90;;;;;;5104978;28;20050;-57
2021/10/13 03:04:59;;;;;;;4.90;1.98;;;8.00;99.90;;;;;;5103960;28;20519;-58
2021/10/13 03:07:34;;;;;;;8.68;1.98;;;7.90;99.90;;;;;;5106442;28;20051;-59
2021/10/13 03:10:02;;;;;;;8.07;1.77;;;7.80;99.90;;;;;;5105695;28;20531;-59
2021/10/13 03:12:36;;;;;;;5.45;1.80;;;7.70;99.90;;;;;;5103491;28;20052;-56
2021/10/13 03:15:04;;;;;;;5.15;1.90;;;7.60;99.90;;;;;;5105650;28;20066;-59
2021/10/13 03:17:30;;;;;;;11.45;2.60;;;7.60;99.90;;;;;;5106833;28;20055;-59
2021/10/13 03:19:57;;;;;;;7.07;2.10;;;7.50;99.90;;;;;;5105099;28;20126;-60
2021/10/13 03:22:25;;;;;;;8.18;1.90;;;7.60;99.90;;;;;;5104426;28;20099;-58
2021/10/13 03:24:51;;;;;;;7.15;2.10;;;7.60;99.90;;;;;;5105465;28;20079;-57
2021/10/13 03:27:17;;;;;;;6.30;2.30;;;7.70;99.90;;;;;;5106043;28;20047;-59
2021/10/13 03:29:43;;;;;;;9.57;1.95;;;7.80;99.90;;;;;;5105879;28;20056;-58
2021/10/13 03:32:19;;;;;;;5.88;1.88;;;7.80;99.90;;;;;;5102856;28;20104;-58
2021/10/13 03:34:46;;;;;;;7.30;1.85;;;7.90;99.90;;;;;;5104154;28;20052;-60
2021/10/13 03:37:16;;;;;;;6.78;2.08;;;7.90;99.90;;;;;;5106550;28;20051;-59
2021/10/13 03:39:47;;;;;;;5.95;1.92;;;8.00;99.90;;;;;;5106750;28;20052;-57
2021/10/13 03:42:13;;;;;;;10.90;2.30;;;8.00;99.90;;;;;;5104717;28;20047;-59
2021/10/13 03:44:39;;;;;;;10.65;2.15;;;8.00;99.90;;;;;;5084523;28;20411;-59
2021/10/13 03:47:06;;;;;;;10.23;2.13;;;8.00;99.90;;;;;;5108300;28;20504;-59
2021/10/13 03:49:33;;;;;;;8.70;2.33;;;8.10;99.90;;;;;;5111775;28;20403;-60
2021/10/13 03:51:59;;;;;;;8.13;2.20;;;8.10;99.90;;;;;;5111031;28;20195;-60
2021/10/13 03:54:25;;;;;;;6.78;1.98;;;8.10;99.90;;;;;;5106101;28;20570;-60
2021/10/13 03:56:54;;;;;;;12.68;2.08;;;8.10;99.90;;;;;;5109980;28;20051;-60
2021/10/13 03:59:20;;;;;;;8.82;1.92;;;8.10;99.90;;;;;;5109979;28;20052;-57
2021/10/13 04:01:50;;;;;;;9.10;2.30;;;8.20;99.90;;;;;;5103551;28;20051;-58
2021/10/13 04:04:16;;;;;;;7.00;2.20;;;8.20;99.90;;;;;;5091564;28;20043;-58
2021/10/13 04:06:42;;;;;;;7.13;1.77;;;8.20;99.90;;;;;;5108585;28;20058;-60
2021/10/13 04:09:08;;;;;;;6.68;2.10;;;8.30;99.90;;;;;;5108176;28;20063;-59
2021/10/13 04:11:34;;;;;;;10.90;2.33;;;8.30;99.90;;;;;;5102634;28;20055;-60
2021/10/13 04:14:02;;;;;;;8.95;2.00;;;8.40;99.90;;;;;;5104617;28;20062;-57
2021/10/13 04:16:31;;;;;;;9.18;2.15;;;8.40;99.90;;;;;;5106891;28;20051;-59
2021/10/13 04:18:57;;;;;;;7.50;1.83;;;8.50;99.90;;;;;;5111042;28;20051;-59
2021/10/13 04:21:23;;;;;;;6.30;2.15;;;8.50;99.90;;;;;;5109324;28;20120;-58
2021/10/13 04:23:51;;;;;;;6.70;2.20;;;8.50;99.90;;;;;;5105471;28;20081;-60
2021/10/13 04:26:18;;;;;;;9.70;2.17;;;8.60;99.90;;;;;;5107666;28;20762;-59
2021/10/13 04:28:44;;;;;;;9.60;2.20;;;8.60;99.90;;;;;;5090552;28;20071;-59
2021/10/13 04:31:11;;;;;;;6.65;1.98;;;8.70;99.90;;;;;;5106555;28;20055;-60
2021/10/13 04:33:37;;;;;;;5.45;1.50;;;8.70;99.90;;;;;;5106298;28;20089;-59
2021/10/13 04:36:03;;;;;;;5.13;2.03;;;8.80;99.90;;;;;;5107310;28;20051;-59
2021/10/13 04:38:29;;;;;;;8.70;1.67;;;8.80;99.90;;;;;;5107004;28;20158;-60
2021/10/13 04:40:55;;;;;;;5.00;1.40;;;8.80;99.90;;;;;;5091402;28;20055;-56
2021/10/13 04:43:21;;;;;;;8.55;2.10;;;8.80;99.90;;;;;;5108039;28;20054;-59
2021/10/13 04:45:47;;;;;;;8.18;1.77;;;8.80;99.90;;;;;;5106927;28;20047;-60
2021/10/13 04:48:13;;;;;;;7.47;1.75;;;8.90;99.90;;;;;;5106036;28;20095;-57
2021/10/13 04:50:39;;;;;;;8.88;1.45;;;8.90;99.90;;;;;;5106676;28;20985;-59
2021/10/13 04:53:05;;;;;;;9.35;1.73;;;8.90;99.90;;;;;;5089437;28;20088;-59
2021/10/13 04:55:34;;;;;;;8.75;1.40;;;8.90;99.90;;;;;;5103457;28;20055;-60
2021/10/13 04:58:00;;;;;;;9.90;1.70;;;8.90;99.90;;;;;;5104476;28;20142;-61
2021/10/13 05:00:26;;;;;;;5.50;1.40;;;8.90;99.90;;;;;;5105192;28;20054;-60
2021/10/13 05:02:54;;;;;;;5.88;1.70;;;9.00;99.90;;;;;;5103950;28;20052;-58
2021/10/13 05:05:22;;;;;;;6.72;1.95;;;9.00;99.90;;;;;;5105217;28;20205;-57
2021/10/13 05:07:49;;;;;;;7.05;1.70;;;9.00;99.90;;;;;;5105693;28;20693;-61
2021/10/13 05:10:15;;;;;;;6.40;1.20;;;9.00;99.90;;;;;;5105415;28;20058;-59
2021/10/13 05:12:43;;;;;;;8.80;1.60;;;9.00;99.90;;;;;;5108182;28;20048;-61
2021/10/13 05:15:12;;;;;;;8.48;1.75;;;9.00;99.90;;;;;;5108498;28;20043;-61
2021/10/13 05:17:38;;;;;;;5.78;1.67;;;9.00;99.90;;;;;;5107856;28;20047;-60
2021/10/13 05:20:04;;;;;;;12.18;1.80;;;9.00;99.90;;;;;;5106617;28;20051;-59
2021/10/13 05:22:30;;;;;;;7.00;1.50;;;9.00;99.90;;;;;;5105738;28;20138;-60
2021/10/13 05:24:57;;;;;;;5.45;1.48;;;8.90;99.90;;;;;;5105246;28;20051;-59
2021/10/13 05:27:25;;;;;;;5.95;1.45;;;8.90;99.90;;;;;;5083193;28;20139;-60
2021/10/13 05:29:51;;;;;;;6.15;1.75;;;8.80;99.90;;;;;;5106773;28;20063;-59
2021/10/13 05:32:17;;;;;;;4.75;1.42;;;8.80;99.90;;;;;;5107886;28;20048;-58
2021/10/13 05:34:43;;;;;;;5.43;1.30;;;8.70;99.90;;;;;;5106885;28;20055;-53
2021/10/13 05:37:09;;;;;;;5.35;1.60;;;8.60;99.90;;;;;;5086726;28;20139;-58
2021/10/13 05:39:35;;;;;;;7.05;1.90;;;8.60;99.90;;;;;;5108306;28;20055;-60
2021/10/13 05:42:01;;;;;;;5.93;1.40;;;8.60;99.90;;;;;;5107492;28;20472;-61
2021/10/13 05:44:28;;;;;;;7.05;1.50;;;8.60;99.90;;;;;;5108519;28;20052;-56
2021/10/13 05:46:54;;;;;;;7.68;2.13;;;8.60;99.90;;;;;;5107924;28;20126;-60
2021/10/13 05:49:25;;;;;;;9.65;1.83;;;8.60;99.90;;;;;;5107136;28;20155;-58
2021/10/13 05:51:51;;;;;;;5.47;1.67;;;8.70;99.90;;;;;;5106947;28;20133;-57
2021/10/13 05:54:17;;;;;;;3.65;1.20;;;8.60;99.90;;;;;;5107793;28;21482;-57
2021/10/13 05:56:43;;;;;;;7.05;1.70;;;8.60;99.90;;;;;;5106930;28;20495;-59
2021/10/13 05:59:12;;;;;;;6.05;1.20;;;8.60;99.90;;;;;;5108211;28;20510;-59
2021/10/13 06:01:38;;;;;;;3.67;1.40;;;8.50;99.90;;;;;;5107773;28;20090;-57
2021/10/13 06:04:04;;;;;;;7.03;1.65;;;8.50;99.90;;;;;;5106506;28;20077;-59
2021/10/13 06:06:35;;;;;;;7.38;1.33;;;8.50;99.90;;;;;;5106115;28;20051;-60
2021/10/13 06:09:01;;;;;;;6.63;1.60;;;8.50;99.90;;;;;;5106346;28;20060;-59
2021/10/13 06:11:29;;;;;;;4.65;1.35;;;8.60;99.90;;;;;;5107858;28;20396;-60
2021/10/13 06:13:56;;;;;;;10.20;2.05;;;8.60;99.90;;;;;;5105746;28;20415;-59
2021/10/13 06:16:23;;;;;;;6.82;1.60;;;8.60;99.90;;;;;;5105153;28;20071;-58
2021/10/13 06:18:50;;;;;;;8.60;1.40;;;8.70;99.90;;;;;;5095326;28;20056;-59
2021/10/13 06:21:21;;;;;;;9.35;1.48;;;8.70;99.90;;;;;;5100019;28;20047;-56
2021/10/13 06:23:48;;;;;;;6.22;1.63;;;8.80;99.90;;;;;;5096855;28;20056;-57
2021/10/13 06:26:17;;;;;;;7.18;1.83;;;8.90;99.90;;;;;;5085848;28;20128;-54
2021/10/13 06:28:44;;;;;;;8.05;1.83;;;9.00;99.90;;;;;;5103276;28;20528;-57
2021/10/13 06:31:10;;;;;;;8.13;1.83;;;9.00;99.90;;;;;;5106782;28;20051;-58
2021/10/13 06:33:39;;;;;;;9.80;1.70;;;9.00;99.90;;;;;;5085753;28;20094;-56
2021/10/13 06:36:07;;;;;;;4.50;1.75;;;9.10;99.90;;;;;;5106263;28;20055;-57
2021/10/13 06:38:34;;;;;;;8.70;2.35;;;9.10;99.90;;;;;;5107292;28;20055;-59
2021/10/13 06:41:01;;;;;;;7.72;1.98;;;9.10;99.90;;;;;;5089418;28;20056;-58
2021/10/13 06:43:27;;;;;;;6.13;1.50;;;9.10;99.90;;;;;;5104858;28;20051;-58
2021/10/13 06:45:54;;;;;;;5.07;1.50;;;9.20;99.90;;;;;;5102699;28;20055;-59
2021/10/13 06:48:21;;;;;;;6.10;1.83;;;9.20;99.90;;;;;;5106816;28;20056;-57
2021/10/13 06:50:50;;;;;;;7.05;1.95;;;9.20;99.90;;;;;;5104156;28;20234;-59
2021/10/13 06:53:16;;;;;;;7.13;1.90;;;9.20;99.90;;;;;;5104495;28;20047;-58
2021/10/13 06:55:42;;;;;;;4.70;1.60;;;9.20;99.90;;;;;;5106530;28;20051;-58
2021/10/13 06:58:11;;;;;;;7.95;1.75;;;9.20;99.90;;;;;;5106966;28;20415;-58
2021/10/13 07:00:37;;;;;;;7.45;2.08;;;9.30;99.90;;;;;;5106572;28;20452;-59
2021/10/13 07:03:05;;;;;;;6.32;1.70;;;9.30;99.90;;;;;;5085898;28;20059;-55
2021/10/13 07:05:32;;;;;;;4.78;1.40;;;9.40;99.90;;;;;;5082731;28;20496;-56
2021/10/13 07:07:58;;;;;;;5.45;1.77;;;9.50;99.90;;;;;;5104317;28;20055;-60
2021/10/13 07:10:24;;;;;;;7.13;1.60;;;9.60;99.90;;;;;;5100781;28;20063;-56
2021/10/13 07:12:50;;;;;;;6.88;1.83;;;9.70;99.90;;;;;;5105138;28;20114;-59
2021/10/13 07:15:17;;;;;;;7.70;1.75;;;9.80;99.90;;;;;;5080345;28;20108;-58
2021/10/13 07:17:45;;;;;;;7.30;1.80;;;9.90;99.90;;;;;;5100300;28;20474;-57
2021/10/13 07:20:11;;;;;;;6.78;1.55;;;9.90;99.90;;;;;;5112467;28;20047;-52
2021/10/13 07:22:37;;;;;;;7.95;1.42;;;9.90;99.90;;;;;;5114268;28;20396;-52
2021/10/13 07:25:06;;;;;;;6.55;1.35;;;9.90;99.90;;;;;;5114580;28;20055;-53
2021/10/13 07:27:33;;;;;;;4.50;1.35;;;9.90;99.90;;;;;;5114103;28;20134;-52
2021/10/13 07:30:01;;;;;;;7.68;1.98;;;10.00;99.90;;;;;;5095468;28;20101;-53
2021/10/13 07:32:32;;;;;;;3.97;1.30;;;10.00;99.90;;;;;;5114500;28;20043;-49
2021/10/13 07:34:58;;;;;;;7.97;1.50;;;10.30;99.90;;;;;;5110757;28;20770;-57
2021/10/13 07:37:24;;;;;;;10.27;1.60;;;10.70;99.90;;;;;;5115571;28;20102;-52
2021/10/13 07:39:51;;;;;;;5.60;1.23;;;11.30;99.90;;;;;;5115269;28;20054;-50
2021/10/13 07:42:18;;;;;;;6.43;1.17;;;11.80;99.90;;;;;;5115730;28;20473;-52
2021/10/13 07:44:45;;;;;;;4.35;1.08;;;12.30;99.90;;;;;;5115265;28;20051;-54
2021/10/13 07:47:11;;;;;;;4.22;1.15;;;12.50;99.90;;;;;;5115279;28;20388;-52
2021/10/13 07:49:38;;;;;;;4.85;1.33;;;12.80;99.90;;;;;;5114731;28;20088;-52
2021/10/13 07:52:07;;;;;;;6.32;1.00;;;13.40;99.90;;;;;;5109702;28;20454;-53
2021/10/13 07:54:36;;;;;;;5.75;1.33;;;13.70;99.90;;;;;;5093955;28;20135;-53
2021/10/13 07:57:02;;;;;;;7.40;0.90;;;14.30;99.90;;;;;;5084419;28;20411;-53
2021/10/13 07:59:31;;;;;;;5.88;0.93;;;14.70;99.90;;;;;;5114574;28;20081;-58
2021/10/13 08:01:57;;;;;;;3.88;1.17;;;15.10;99.90;;;;;;5095065;28;20047;-59
2021/10/13 08:04:26;;;;;;;3.97;0.80;;;15.50;99.90;;;;;;5114768;28;20054;-58
2021/10/13 08:06:55;;;;;;;4.25;0.90;;;15.80;99.90;;;;;;5111592;28;20528;-58
2021/10/13 08:09:21;;;;;;;3.70;0.73;;;16.00;99.90;;;;;;5113874;28;20059;-57
2021/10/13 08:11:47;;;;;;;6.03;1.15;;;16.20;99.90;;;;;;5100014;28;20453;-57
2021/10/13 08:14:16;;;;;;;2.75;0.60;;;16.30;99.90;;;;;;5109616;28;20153;-57
2021/10/13 08:16:47;;;;;;;;;;;16.60;99.90;;;;;;5114903;28;20054;-57
2021/10/13 08:19:18;;;;;;;3.28;0.60;;;16.40;99.90;;;;;;5114347;28;19919;-57
2021/10/13 08:21:47;;;;;;;3.60;0.82;;;16.80;99.90;;;;;;5113842;28;20051;-57
2021/10/13 08:24:13;;;;;;;4.25;0.88;;;17.10;99.90;;;;;;5096352;28;20051;-56
2021/10/13 08:26:45;;;;;;;5.60;0.90;;;17.20;99.90;;;;;;5114294;28;20056;-57
2021/10/13 08:29:15;;;;;;;5.82;0.80;;;17.50;99.90;;;;;;5114495;28;20062;-57
2021/10/13 08:31:43;;;;;;;4.88;1.00;;;17.60;99.90;;;;;;5111344;28;20130;-57
2021/10/13 08:34:10;;;;;;;6.45;1.27;;;17.70;99.90;;;;;;5093963;28;20059;-57
2021/10/13 08:36:36;;;;;;;6.32;1.08;;;17.40;99.90;;;;;;5093555;28;20769;-57
2021/10/13 08:39:12;;;;;;;;;;;17.20;99.90;;;;;;5093281;28;20408;-57
2021/10/13 08:41:39;;;;;;;2.92;0.75;;;16.40;98.70;;;;;;5092889;28;20071;-57
2021/10/13 08:44:05;;;;;;;5.60;0.90;;;16.60;99.90;;;;;;5111106;28;20131;-56
2021/10/13 08:46:31;;;;;;;3.20;0.70;;;16.80;99.90;;;;;;5111119;28;20100;-56
2021/10/13 08:48:57;;;;;;;5.03;0.93;;;16.90;99.90;;;;;;5110881;28;20134;-57
2021/10/13 08:51:23;;;;;;;3.58;0.95;;;17.10;99.90;;;;;;5111120;28;21000;-57
2021/10/13 08:53:52;;;;;;;5.00;1.00;;;17.70;99.90;;;;;;5110482;28;20040;-57
2021/10/13 08:56:18;;;;;;;5.93;1.00;;;17.80;99.90;;;;;;5110892;28;20463;-57
2021/10/13 08:58:50;;;;;;;4.57;0.95;;;18.00;92.90;;;;;;5111031;28;20047;-57
2021/10/13 09:01:21;;;;;;;4.22;0.88;;;18.20;92.30;;;;;;5110963;28;20070;-56
2021/10/13 09:03:55;;;;;;;6.07;1.35;;;18.30;94.70;;;;;;5092489;28;20058;-57
2021/10/13 09:06:25;;;;;;;4.95;1.00;;;18.40;97.30;;;;;;5110625;28;20136;-56
2021/10/13 09:09:10;;;;;;;4.63;0.75;;;19.10;91.20;;;;;;5110432;28;20063;-56
2021/10/13 09:11:50;;;;;;;4.20;0.73;;;19.70;92.10;;;;;;5110503;28;20158;-57
2021/10/13 09:14:27;;;;;;;6.70;1.58;;;20.10;81.50;;;;;;5092186;28;20097;-57
2021/10/13 09:17:05;;;;;;;4.63;0.70;;;19.60;87.90;;;;;;5110603;28;20146;-56
2021/10/13 09:19:44;;;;;;;2.28;0.50;;;18.80;82.40;;;;;;5110325;28;20059;-56
2021/10/13 09:22:14;;;;;;;4.50;0.73;;;19.20;78.70;;;;;;5110618;28;20051;-56
2021/10/13 09:24:51;;;;;;;7.38;1.25;;;18.50;83.90;;;;;;5110607;28;20064;-56
2021/10/13 09:27:30;;;;;;;2.72;0.65;;;17.60;79.40;;;;;;5110608;28;20048;-56
2021/10/13 09:30:00;;;;;;;3.88;0.80;;;17.10;90.70;;;;;;5110257;28;20086;-55
2021/10/13 09:32:27;;;;;;;4.65;0.82;;;16.90;94.50;;;;;;5110699;28;20063;-56
2021/10/13 09:34:54;;;;;;;3.50;0.80;;;16.30;94.50;;;;;;5110671;28;20066;-55
2021/10/13 09:37:21;;;;;;;4.03;0.60;;;16.30;99.90;;;;;;5109676;28;20503;-56
2021/10/13 09:40:03;;;;;;;2.50;0.70;;;16.70;97.50;;;;;;5104885;28;20052;-55
2021/10/13 09:42:41;;;;;;;5.85;0.88;;;17.20;93.90;;;;;;5109649;28;20051;-56
2021/10/13 09:45:12;;;;;;;4.40;1.00;;;17.40;93.80;;;;;;5110283;28;20059;-56
2021/10/13 09:47:41;;;;;;;4.00;0.93;;;17.80;95.60;;;;;;5110080;28;20462;-55
2021/10/13 09:50:15;;;;;;;3.08;0.82;;;18.50;91.10;;;;;;5107887;28;20051;-56
2021/10/13 09:52:46;;;;;;;2.75;1.10;;;19.30;91.20;;;;;;5109605;28;20054;-56
2021/10/13 09:55:13;;;;;;;4.32;0.95;;;19.90;85.80;;;;;;5109275;28;20055;-56
2021/10/13 09:57:43;;;;;;;2.88;0.70;;;19.90;78.90;;;;;;5109612;28;20055;-56
2021/10/13 10:00:12;;;;;;;2.17;0.60;;;19.60;72.90;;;;;;5109280;28;20098;-55
2021/10/13 10:02:54;;;;;;;3.63;0.70;;;19.00;73.50;;;;;;5109212;28;20051;-55
2021/10/13 10:05:25;;;;;;;3.45;1.05;;;18.40;79.20;;;;;;5109778;28;20052;-55
2021/10/13 10:08:12;;;;;;;5.15;0.75;;;18.80;80.10;;;;;;5109165;28;20047;-55
2021/10/13 10:11:07;;;;;;;2.17;0.80;;;18.90;78.50;;;;;;5109191;28;20154;-56
2021/10/13 10:13:35;;;;;;;5.25;1.13;;;18.20;76.80;;;;;;5109033;28;20051;-55
2021/10/13 10:16:04;;;;;;;5.30;1.00;;;18.20;83.60;;;;;;5091407;28;20060;-55
2021/10/13 10:18:36;;;;;;;4.20;0.93;;;19.20;82.70;;;;;;5109342;28;20399;-55
2021/10/13 10:21:25;;;;;;;3.58;0.60;;;19.50;78.00;;;;;;5109665;28;20055;-56
2021/10/13 10:24:18;;;;;;;4.15;0.70;;;20.30;72.70;;;;;;5092227;28;20403;-54
2021/10/13 10:26:44;;;;;;;2.97;0.68;;;20.70;70.70;;;;;;5109409;28;20142;-54
2021/10/13 10:29:17;;;;;;;3.15;1.23;;;20.90;69.70;;;;;;5108273;28;20120;-56
2021/10/13 10:31:55;;;;;;;2.25;0.70;;;21.60;64.50;;;;;;5108781;28;20048;-57
2021/10/13 10:34:23;;;;;;;3.40;0.60;;;21.70;63.40;;;;;;5090221;28;20081;-56
2021/10/13 10:36:55;;;;;;;1.17;0.40;;;21.50;62.20;;;;;;5098373;28;20424;-55
2021/10/13 10:39:55;;;;;;;2.70;0.40;;;20.70;62.40;;;;;;5108054;28;20097;-56
2021/10/13 10:42:43;;;;;;;3.28;0.80;;;20.80;63.00;;;;;;5109265;28;20450;-56
2021/10/13 10:45:19;;;;;;;5.80;1.13;;;21.10;60.50;;;;;;5109332;28;20061;-56
2021/10/13 10:47:49;;;;;;;1.88;0.60;;;21.00;60.50;;;;;;5108901;28;20134;-56
2021/10/13 10:50:26;;;;;;;3.17;0.70;;;20.60;61.90;;;;;;5108478;28;20048;-56
2021/10/13 10:53:13;;;;;;;5.60;0.95;;;20.40;61.60;;;;;;5107157;28;20056;-55
2021/10/13 10:55:44;;;;;;;8.95;6.55;;;19.70;63.20;;;;;;5104616;28;20140;-59
2021/10/13 10:58:26;;;;;;;2.30;0.98;;;19.10;66.60;;;;;;5088069;28;20499;-59
2021/10/13 11:01:01;;;;;;;1.75;0.63;;;18.80;67.40;;;;;;5080447;28;20064;-57
2021/10/13 11:03:36;;;;;;;4.40;1.10;;;18.20;70.60;;;;;;5090556;28;20087;-57
2021/10/13 11:06:24;;;;;;;4.82;1.35;;;17.70;73.70;;;;;;5108298;28;20047;-57
2021/10/13 11:08:52;;;;;;;4.00;1.52;;;17.30;79.30;;;;;;5108306;28;20147;-57
2021/10/13 11:11:18;;;;;;;14.40;10.80;;;17.00;83.30;;;;;;5107036;28;20051;-56
2021/10/13 11:14:07;;;;;;;6.57;5.78;;;16.50;91.80;;;;;;5089485;28;20105;-56
2021/10/13 11:16:39;;;;;;;3.72;2.38;;;15.90;99.90;;;;;;5090159;28;20051;-57
2021/10/13 11:19:19;;;;;;;2.42;1.05;;;15.30;99.90;;;;;;5108312;28;20055;-57
2021/10/13 11:21:53;;;;;;;1.30;0.45;;;15.10;99.90;;;;;;5108168;28;20107;-53
2021/10/13 11:24:19;;;;;;;5.53;3.65;;;14.90;99.90;;;;;;5107232;28;20824;-56
2021/10/13 11:26:45;;;;;;;7.35;3.25;;;14.60;99.90;;;;;;5107624;28;20071;-55
2021/10/13 11:29:20;;;;;;;6.20;2.15;;;14.50;99.90;;;;;;5106600;28;20813;-57
2021/10/13 11:31:46;;;;;;;3.90;1.70;;;14.40;99.90;;;;;;5102183;28;20050;-56
2021/10/13 11:34:16;;;;;;;2.47;0.88;;;14.50;99.90;;;;;;5089145;28;20488;-56
2021/10/13 11:36:51;;;;;;;1.45;0.50;;;14.30;99.90;;;;;;5106387;28;20063;-56
2021/10/13 11:39:22;;;;;;;2.38;0.60;;;14.40;99.90;;;;;;5106654;28;20052;-57
2021/10/13 11:41:48;;;;;;;2.08;0.60;;;14.50;99.90;;;;;;5085204;28;20154;-56
2021/10/13 11:44:23;;;;;;;4.32;0.73;;;14.70;99.90;;;;;;5102974;28;20708;-56
2021/10/13 11:47:01;;;;;;;1.85;0.68;;;15.00;99.90;;;;;;5103538;28;20063;-55
2021/10/13 11:49:28;;;;;;;3.25;0.73;;;15.10;99.90;;;;;;5102295;28;20476;-55
2021/10/13 11:52:05;;;;;;;2.53;0.85;;;15.80;99.90;;;;;;5101449;28;20052;-56
2021/10/13 11:54:31;;;;;;;4.35;0.73;;;16.30;99.90;;;;;;5086381;28;20048;-57
2021/10/13 11:56:58;;;;;;;2.70;0.40;;;16.50;99.90;;;;;;5102337;28;20223;-57
2021/10/13 11:59:24;;;;;;;2.97;0.80;;;16.70;99.90;;;;;;5107351;28;20559;-57
2021/10/13 12:01:50;;;;;;;4.15;1.52;;;16.60;99.90;;;;;;5107116;28;20055;-52
2021/10/13 12:04:19;;;;;;;4.38;0.70;;;16.60;99.90;;;;;;5107869;28;20062;-56
2021/10/13 12:06:45;;;;;;;3.00;0.82;;;16.60;99.90;;;;;;5109894;28;20061;-56
2021/10/13 12:09:12;;;;;;;6.18;2.35;;;16.30;99.90;;;;;;5107211;28;20055;-57
2021/10/13 12:11:41;;;;;;;3.97;0.52;;;16.20;99.90;;;;;;5109300;28;20063;-54
2021/10/13 12:14:12;;;;;;;3.35;0.60;;;16.20;99.90;;;;;;5111048;28;20062;-52
2021/10/13 12:16:39;;;;;;;5.03;2.20;;;16.00;99.90;;;;;;5097602;28;20070;-50
2021/10/13 12:19:18;;;;;;;6.05;2.63;;;16.00;99.90;;;;;;5105082;28;20427;-53
2021/10/13 12:22:01;;;;;;;2.63;0.85;;;16.00;99.90;;;;;;5105243;28;20328;-53
2021/10/13 12:24:28;;;;;;;4.85;1.25;;;15.90;99.90;;;;;;5109458;28;20572;-52
2021/10/13 12:26:54;;;;;;;3.72;0.80;;;15.80;99.90;;;;;;5111418;28;20051;-51
2021/10/13 12:29:20;;;;;;;5.78;1.08;;;16.00;99.90;;;;;;5110168;28;20083;-53
2021/10/13 12:31:46;;;;;;;3.55;0.60;;;15.70;99.90;;;;;;5109541;28;20066;-54
2021/10/13 12:34:16;;;;;;;4.75;0.80;;;15.70;99.90;;;;;;5106816;28;20158;-48
2021/10/13 12:36:54;;;;;;;3.03;0.98;;;15.60;99.90;;;;;;5110552;28;20083;-52
2021/10/13 12:39:26;;;;;;;11.00;5.78;;;15.70;99.90;;;;;;5110503;28;20115;-50
2021/10/13 12:42:01;;;;;;;3.22;0.93;;;15.70;99.90;;;;;;5108097;28;20055;-51
2021/10/13 12:44:29;;;;;;;10.23;4.53;;;15.90;99.90;;;;;;5107391;28;20047;-53
2021/10/13 12:47:01;;;;;;;4.88;1.77;;;16.20;99.90;;;;;;5104584;28;20051;-52
2021/10/13 12:49:35;;;;;;;7.82;3.28;;;16.30;99.90;;;;;;5109125;28;20770;-51
2021/10/13 12:52:34;;;;;;;4.75;1.38;;;16.60;99.90;;;;;;5106401;28;20054;-49
2021/10/13 12:55:00;;;;;;;6.22;1.00;;;16.70;99.90;;;;;;5103866;28;20055;-52
2021/10/13 12:57:28;;;;;;;6.75;1.05;;;17.00;99.90;;;;;;5099811;28;20144;-50
2021/10/13 12:59:55;;;;;;;3.03;1.20;;;17.30;99.90;;;;;;5107546;28;20062;-51
2021/10/13 13:02:24;;;;;;;12.45;7.22;;;17.60;99.90;;;;;;5088506;28;20048;-49
2021/10/13 13:04:50;;;;;;;4.55;1.63;;;17.50;99.90;;;;;;5087649;28;20060;-51
2021/10/13 13:07:16;;;;;;;4.57;1.38;;;17.40;99.90;;;;;;5108073;28;21814;-53